sensor_id;sensor_type;location;lat;lon;timestamp;P1;durP1;ratioP1;P2;durP2;ratioP2
21245;SDS011;10781;50.928;4.440;2023-07-13T00:02:22;5.80;;;1.90;;
21245;SDS011;10781;50.928;4.440;2023-07-13T00:04:49;5.75;;;1.83;;
21245;SDS011;10781;50.928;4.440;2023-07-13T00:07:15;5.60;;;1.70;;
21245;SDS011;10781;50.928;4.440;2023-07-13T00:09:41;7.85;;;1.92;;
21245;SDS011;10781;50.928;4.440;2023-07-13T00:12:21;5.82;;;1.67;;
21245;SDS011;10781;50.928;4.440;2023-07-13T00:14:52;6.25;;;1.58;;
21245;SDS011;10781;50.928;4.440;2023-07-13T00:17:18;3.85;;;1.50;;
21245;SDS011;10781;50.928;4.440;2023-07-13T00:19:44;7.18;;;1.73;;
21245;SDS011;10781;50.928;4.440;2023-07-13T00:22:10;7.18;;;1.88;;
21245;SDS011;10781;50.928;4.440;2023-07-13T00:24:36;6.80;;;2.05;;
21245;SDS011;10781;50.928;4.440;2023-07-13T00:27:06;5.22;;;1.85;;
21245;SDS011;10781;50.928;4.440;2023-07-13T00:29:34;5.45;;;1.80;;
21245;SDS011;10781;50.928;4.440;2023-07-13T00:32:00;7.05;;;1.92;;
21245;SDS011;10781;50.928;4.440;2023-07-13T00:34:26;7.15;;;2.00;;
21245;SDS011;10781;50.928;4.440;2023-07-13T00:36:52;6.50;;;2.00;;
21245;SDS011;10781;50.928;4.440;2023-07-13T00:39:18;7.35;;;1.63;;
21245;SDS011;10781;50.928;4.440;2023-07-13T00:41:46;9.68;;;2.00;;
21245;SDS011;10781;50.928;4.440;2023-07-13T00:44:15;8.23;;;2.50;;
21245;SDS011;10781;50.928;4.440;2023-07-13T00:46:42;6.95;;;1.92;;
21245;SDS011;10781;50.928;4.440;2023-07-13T00:49:09;5.22;;;2.00;;
21245;SDS011;10781;50.928;4.440;2023-07-13T00:51:39;10.27;;;2.10;;
21245;SDS011;10781;50.928;4.440;2023-07-13T00:54:10;6.32;;;1.90;;
21245;SDS011;10781;50.928;4.440;2023-07-13T00:56:41;7.40;;;1.92;;
21245;SDS011;10781;50.928;4.440;2023-07-13T00:59:08;7.43;;;2.08;;
21245;SDS011;10781;50.928;4.440;2023-07-13T01:01:36;6.38;;;2.00;;
21245;SDS011;10781;50.928;4.440;2023-07-13T01:04:03;6.85;;;2.15;;
21245;SDS011;10781;50.928;4.440;2023-07-13T01:06:28;8.32;;;2.10;;
21245;SDS011;10781;50.928;4.440;2023-07-13T01:08:55;7.53;;;2.17;;
21245;SDS011;10781;50.928;4.440;2023-07-13T01:11:22;6.43;;;2.30;;
21245;SDS011;10781;50.928;4.440;2023-07-13T01:13:48;6.60;;;2.03;;
21245;SDS011;10781;50.928;4.440;2023-07-13T01:16:19;10.20;;;2.20;;
21245;SDS011;10781;50.928;4.440;2023-07-13T01:18:52;7.03;;;2.38;;
21245;SDS011;10781;50.928;4.440;2023-07-13T01:21:19;10.05;;;2.13;;
21245;SDS011;10781;50.928;4.440;2023-07-13T01:23:45;5.07;;;1.85;;
21245;SDS011;10781;50.928;4.440;2023-07-13T01:26:11;7.95;;;2.30;;
21245;SDS011;10781;50.928;4.440;2023-07-13T01:28:37;9.15;;;2.20;;
21245;SDS011;10781;50.928;4.440;2023-07-13T01:31:03;6.88;;;2.25;;
21245;SDS011;10781;50.928;4.440;2023-07-13T01:33:29;5.22;;;2.10;;
21245;SDS011;10781;50.928;4.440;2023-07-13T01:35:55;4.90;;;1.95;;
21245;SDS011;10781;50.928;4.440;2023-07-13T01:38:23;5.25;;;1.98;;
21245;SDS011;10781;50.928;4.440;2023-07-13T01:40:49;5.68;;;1.95;;
21245;SDS011;10781;50.928;4.440;2023-07-13T01:43:16;8.68;;;2.60;;
21245;SDS011;10781;50.928;4.440;2023-07-13T01:45:42;7.15;;;2.25;;
21245;SDS011;10781;50.928;4.440;2023-07-13T01:48:09;8.38;;;2.25;;
21245;SDS011;10781;50.928;4.440;2023-07-13T01:50:35;5.80;;;2.10;;
21245;SDS011;10781;50.928;4.440;2023-07-13T01:53:01;7.15;;;1.88;;
21245;SDS011;10781;50.928;4.440;2023-07-13T01:55:27;4.93;;;2.05;;
21245;SDS011;10781;50.928;4.440;2023-07-13T01:57:53;8.90;;;2.42;;
21245;SDS011;10781;50.928;4.440;2023-07-13T02:00:19;8.50;;;2.50;;
21245;SDS011;10781;50.928;4.440;2023-07-13T02:02:45;6.50;;;2.20;;
21245;SDS011;10781;50.928;4.440;2023-07-13T02:05:11;9.70;;;2.35;;
21245;SDS011;10781;50.928;4.440;2023-07-13T02:07:38;7.15;;;2.00;;
21245;SDS011;10781;50.928;4.440;2023-07-13T02:10:05;9.68;;;2.35;;
21245;SDS011;10781;50.928;4.440;2023-07-13T02:12:32;6.40;;;2.47;;
21245;SDS011;10781;50.928;4.440;2023-07-13T02:14:58;6.35;;;2.05;;
21245;SDS011;10781;50.928;4.440;2023-07-13T02:17:23;9.63;;;2.38;;
21245;SDS011;10781;50.928;4.440;2023-07-13T02:19:50;8.43;;;2.40;;
21245;SDS011;10781;50.928;4.440;2023-07-13T02:22:16;6.68;;;2.30;;
21245;SDS011;10781;50.928;4.440;2023-07-13T02:24:41;9.27;;;2.20;;
21245;SDS011;10781;50.928;4.440;2023-07-13T02:27:07;6.05;;;2.30;;
21245;SDS011;10781;50.928;4.440;2023-07-13T02:29:33;7.15;;;2.40;;
21245;SDS011;10781;50.928;4.440;2023-07-13T02:31:58;9.50;;;2.10;;
21245;SDS011;10781;50.928;4.440;2023-07-13T02:34:24;7.82;;;2.25;;
21245;SDS011;10781;50.928;4.440;2023-07-13T02:36:49;6.55;;;2.08;;
21245;SDS011;10781;50.928;4.440;2023-07-13T02:39:15;7.55;;;2.60;;
21245;SDS011;10781;50.928;4.440;2023-07-13T02:41:41;6.57;;;2.25;;
21245;SDS011;10781;50.928;4.440;2023-07-13T02:44:07;8.88;;;2.28;;
21245;SDS011;10781;50.928;4.440;2023-07-13T02:46:34;10.82;;;2.88;;
21245;SDS011;10781;50.928;4.440;2023-07-13T02:49:01;8.63;;;2.38;;
21245;SDS011;10781;50.928;4.440;2023-07-13T02:51:27;8.82;;;2.50;;
21245;SDS011;10781;50.928;4.440;2023-07-13T02:53:53;7.55;;;2.42;;
21245;SDS011;10781;50.928;4.440;2023-07-13T02:56:23;8.10;;;2.40;;
21245;SDS011;10781;50.928;4.440;2023-07-13T02:58:50;8.15;;;2.55;;
21245;SDS011;10781;50.928;4.440;2023-07-13T03:01:16;7.90;;;2.40;;
21245;SDS011;10781;50.928;4.440;2023-07-13T03:03:43;10.52;;;3.00;;
21245;SDS011;10781;50.928;4.440;2023-07-13T03:06:08;11.02;;;2.70;;
21245;SDS011;10781;50.928;4.440;2023-07-13T03:08:34;7.65;;;2.60;;
21245;SDS011;10781;50.928;4.440;2023-07-13T03:11:00;9.88;;;2.83;;
21245;SDS011;10781;50.928;4.440;2023-07-13T03:13:27;10.90;;;2.70;;
21245;SDS011;10781;50.928;4.440;2023-07-13T03:15:53;8.88;;;2.50;;
21245;SDS011;10781;50.928;4.440;2023-07-13T03:18:18;9.30;;;2.80;;
21245;SDS011;10781;50.928;4.440;2023-07-13T03:20:44;9.77;;;2.90;;
21245;SDS011;10781;50.928;4.440;2023-07-13T03:23:09;9.18;;;2.78;;
21245;SDS011;10781;50.928;4.440;2023-07-13T03:25:35;8.13;;;2.70;;
21245;SDS011;10781;50.928;4.440;2023-07-13T03:28:01;8.20;;;2.55;;
21245;SDS011;10781;50.928;4.440;2023-07-13T03:30:26;17.02;;;3.83;;
21245;SDS011;10781;50.928;4.440;2023-07-13T03:32:52;8.25;;;2.78;;
21245;SDS011;10781;50.928;4.440;2023-07-13T03:35:17;8.57;;;2.70;;
21245;SDS011;10781;50.928;4.440;2023-07-13T03:37:43;8.77;;;2.90;;
21245;SDS011;10781;50.928;4.440;2023-07-13T03:40:09;11.60;;;2.72;;
21245;SDS011;10781;50.928;4.440;2023-07-13T03:42:35;9.50;;;2.85;;
21245;SDS011;10781;50.928;4.440;2023-07-13T03:45:01;10.13;;;2.88;;
21245;SDS011;10781;50.928;4.440;2023-07-13T03:47:27;7.43;;;2.63;;
21245;SDS011;10781;50.928;4.440;2023-07-13T03:49:53;11.07;;;3.03;;
21245;SDS011;10781;50.928;4.440;2023-07-13T03:52:19;12.38;;;3.40;;
21245;SDS011;10781;50.928;4.440;2023-07-13T03:54:44;9.40;;;3.00;;
21245;SDS011;10781;50.928;4.440;2023-07-13T03:57:10;13.85;;;2.88;;
21245;SDS011;10781;50.928;4.440;2023-07-13T03:59:36;11.05;;;2.75;;
21245;SDS011;10781;50.928;4.440;2023-07-13T04:02:01;8.98;;;2.75;;
21245;SDS011;10781;50.928;4.440;2023-07-13T04:04:29;7.57;;;2.67;;
21245;SDS011;10781;50.928;4.440;2023-07-13T04:06:55;11.50;;;2.83;;
21245;SDS011;10781;50.928;4.440;2023-07-13T04:09:24;9.07;;;2.58;;
21245;SDS011;10781;50.928;4.440;2023-07-13T04:11:50;10.65;;;3.05;;
21245;SDS011;10781;50.928;4.440;2023-07-13T04:14:16;10.27;;;3.03;;
21245;SDS011;10781;50.928;4.440;2023-07-13T04:16:42;8.40;;;2.85;;
21245;SDS011;10781;50.928;4.440;2023-07-13T04:19:08;10.18;;;3.03;;
21245;SDS011;10781;50.928;4.440;2023-07-13T04:21:35;10.75;;;3.15;;
21245;SDS011;10781;50.928;4.440;2023-07-13T04:24:01;10.38;;;2.90;;
21245;SDS011;10781;50.928;4.440;2023-07-13T04:26:28;14.65;;;3.17;;
21245;SDS011;10781;50.928;4.440;2023-07-13T04:28:54;11.95;;;3.30;;
21245;SDS011;10781;50.928;4.440;2023-07-13T04:31:20;10.98;;;3.17;;
21245;SDS011;10781;50.928;4.440;2023-07-13T04:33:47;13.48;;;3.28;;
21245;SDS011;10781;50.928;4.440;2023-07-13T04:36:14;9.95;;;3.00;;
21245;SDS011;10781;50.928;4.440;2023-07-13T04:38:40;8.25;;;2.53;;
21245;SDS011;10781;50.928;4.440;2023-07-13T04:41:06;9.65;;;2.97;;
21245;SDS011;10781;50.928;4.440;2023-07-13T04:43:33;10.18;;;3.17;;
21245;SDS011;10781;50.928;4.440;2023-07-13T04:46:03;11.95;;;2.83;;
21245;SDS011;10781;50.928;4.440;2023-07-13T04:48:30;11.35;;;3.38;;
21245;SDS011;10781;50.928;4.440;2023-07-13T04:50:56;12.55;;;3.00;;
21245;SDS011;10781;50.928;4.440;2023-07-13T04:53:23;11.25;;;2.95;;
21245;SDS011;10781;50.928;4.440;2023-07-13T04:55:49;12.27;;;2.95;;
21245;SDS011;10781;50.928;4.440;2023-07-13T04:58:15;10.30;;;2.70;;
21245;SDS011;10781;50.928;4.440;2023-07-13T05:00:41;10.85;;;2.80;;
21245;SDS011;10781;50.928;4.440;2023-07-13T05:03:07;9.32;;;3.00;;
21245;SDS011;10781;50.928;4.440;2023-07-13T05:05:32;8.80;;;3.03;;
21245;SDS011;10781;50.928;4.440;2023-07-13T05:07:59;13.80;;;2.85;;
21245;SDS011;10781;50.928;4.440;2023-07-13T05:10:24;11.57;;;3.28;;
21245;SDS011;10781;50.928;4.440;2023-07-13T05:12:50;11.90;;;3.65;;
21245;SDS011;10781;50.928;4.440;2023-07-13T05:15:16;9.73;;;2.75;;
21245;SDS011;10781;50.928;4.440;2023-07-13T05:17:45;8.23;;;2.60;;
21245;SDS011;10781;50.928;4.440;2023-07-13T05:20:12;13.80;;;3.08;;
21245;SDS011;10781;50.928;4.440;2023-07-13T05:22:37;9.98;;;2.65;;
21245;SDS011;10781;50.928;4.440;2023-07-13T05:25:06;9.30;;;2.63;;
21245;SDS011;10781;50.928;4.440;2023-07-13T05:27:33;9.50;;;2.78;;
21245;SDS011;10781;50.928;4.440;2023-07-13T05:29:59;8.25;;;2.45;;
21245;SDS011;10781;50.928;4.440;2023-07-13T05:32:25;8.75;;;2.83;;
21245;SDS011;10781;50.928;4.440;2023-07-13T05:34:51;8.43;;;3.60;;
21245;SDS011;10781;50.928;4.440;2023-07-13T05:37:17;12.30;;;2.75;;
21245;SDS011;10781;50.928;4.440;2023-07-13T05:39:43;8.15;;;2.55;;
21245;SDS011;10781;50.928;4.440;2023-07-13T05:42:09;12.25;;;3.10;;
21245;SDS011;10781;50.928;4.440;2023-07-13T05:44:35;9.43;;;3.20;;
21245;SDS011;10781;50.928;4.440;2023-07-13T05:47:00;11.93;;;3.17;;
21245;SDS011;10781;50.928;4.440;2023-07-13T05:49:26;11.07;;;3.08;;
21245;SDS011;10781;50.928;4.440;2023-07-13T05:51:52;11.95;;;3.08;;
21245;SDS011;10781;50.928;4.440;2023-07-13T05:54:17;10.15;;;3.47;;
21245;SDS011;10781;50.928;4.440;2023-07-13T05:56:43;14.60;;;3.13;;
21245;SDS011;10781;50.928;4.440;2023-07-13T05:59:09;10.95;;;2.97;;
21245;SDS011;10781;50.928;4.440;2023-07-13T06:01:35;13.55;;;3.47;;
21245;SDS011;10781;50.928;4.440;2023-07-13T06:04:00;14.75;;;3.70;;
21245;SDS011;10781;50.928;4.440;2023-07-13T06:06:26;10.85;;;3.08;;
21245;SDS011;10781;50.928;4.440;2023-07-13T06:08:52;13.38;;;3.05;;
21245;SDS011;10781;50.928;4.440;2023-07-13T06:11:19;10.18;;;3.33;;
21245;SDS011;10781;50.928;4.440;2023-07-13T06:13:46;15.68;;;3.30;;
21245;SDS011;10781;50.928;4.440;2023-07-13T06:16:12;10.57;;;3.10;;
21245;SDS011;10781;50.928;4.440;2023-07-13T06:18:39;8.93;;;3.40;;
21245;SDS011;10781;50.928;4.440;2023-07-13T06:21:26;13.60;;;3.28;;
21245;SDS011;10781;50.928;4.440;2023-07-13T06:23:51;14.02;;;3.42;;
21245;SDS011;10781;50.928;4.440;2023-07-13T06:26:17;13.23;;;3.50;;
21245;SDS011;10781;50.928;4.440;2023-07-13T06:28:44;11.48;;;3.00;;
21245;SDS011;10781;50.928;4.440;2023-07-13T06:31:10;8.13;;;2.83;;
21245;SDS011;10781;50.928;4.440;2023-07-13T06:33:37;9.85;;;2.95;;
21245;SDS011;10781;50.928;4.440;2023-07-13T06:36:04;14.52;;;3.42;;
21245;SDS011;10781;50.928;4.440;2023-07-13T06:38:31;8.35;;;2.90;;
21245;SDS011;10781;50.928;4.440;2023-07-13T06:40:57;14.05;;;3.20;;
21245;SDS011;10781;50.928;4.440;2023-07-13T06:43:23;12.23;;;2.90;;
21245;SDS011;10781;50.928;4.440;2023-07-13T06:45:50;8.60;;;2.80;;
21245;SDS011;10781;50.928;4.440;2023-07-13T06:48:17;9.57;;;3.05;;
21245;SDS011;10781;50.928;4.440;2023-07-13T06:50:44;13.30;;;3.20;;
21245;SDS011;10781;50.928;4.440;2023-07-13T06:53:11;13.30;;;3.42;;
21245;SDS011;10781;50.928;4.440;2023-07-13T06:55:38;9.05;;;2.90;;
21245;SDS011;10781;50.928;4.440;2023-07-13T06:58:04;9.50;;;3.13;;
21245;SDS011;10781;50.928;4.440;2023-07-13T07:00:30;8.90;;;2.80;;
21245;SDS011;10781;50.928;4.440;2023-07-13T07:02:56;12.07;;;2.85;;
21245;SDS011;10781;50.928;4.440;2023-07-13T07:05:22;11.65;;;2.92;;
21245;SDS011;10781;50.928;4.440;2023-07-13T07:07:49;9.88;;;2.83;;
21245;SDS011;10781;50.928;4.440;2023-07-13T07:10:15;10.75;;;3.50;;
21245;SDS011;10781;50.928;4.440;2023-07-13T07:12:40;14.95;;;3.70;;
21245;SDS011;10781;50.928;4.440;2023-07-13T07:15:06;12.80;;;3.05;;
21245;SDS011;10781;50.928;4.440;2023-07-13T07:17:32;11.05;;;3.28;;
21245;SDS011;10781;50.928;4.440;2023-07-13T07:19:58;9.45;;;3.10;;
21245;SDS011;10781;50.928;4.440;2023-07-13T07:22:23;7.47;;;3.10;;
21245;SDS011;10781;50.928;4.440;2023-07-13T07:24:52;11.15;;;3.20;;
21245;SDS011;10781;50.928;4.440;2023-07-13T07:27:20;8.40;;;3.20;;
21245;SDS011;10781;50.928;4.440;2023-07-13T07:29:45;14.30;;;3.17;;
21245;SDS011;10781;50.928;4.440;2023-07-13T07:32:11;8.00;;;3.10;;
21245;SDS011;10781;50.928;4.440;2023-07-13T07:34:37;8.80;;;3.00;;
21245;SDS011;10781;50.928;4.440;2023-07-13T07:37:02;10.35;;;2.95;;
21245;SDS011;10781;50.928;4.440;2023-07-13T07:39:29;12.85;;;3.20;;
21245;SDS011;10781;50.928;4.440;2023-07-13T07:41:54;9.15;;;3.13;;
21245;SDS011;10781;50.928;4.440;2023-07-13T07:44:20;9.35;;;2.60;;
21245;SDS011;10781;50.928;4.440;2023-07-13T07:46:46;10.70;;;2.70;;
21245;SDS011;10781;50.928;4.440;2023-07-13T07:49:12;9.40;;;2.70;;
21245;SDS011;10781;50.928;4.440;2023-07-13T07:51:38;9.13;;;2.60;;
21245;SDS011;10781;50.928;4.440;2023-07-13T07:54:04;10.43;;;2.70;;
21245;SDS011;10781;50.928;4.440;2023-07-13T07:56:30;9.18;;;2.58;;
21245;SDS011;10781;50.928;4.440;2023-07-13T07:58:56;10.15;;;2.70;;
21245;SDS011;10781;50.928;4.440;2023-07-13T08:01:22;10.25;;;2.55;;
21245;SDS011;10781;50.928;4.440;2023-07-13T08:03:48;7.30;;;2.45;;
21245;SDS011;10781;50.928;4.440;2023-07-13T08:06:14;8.75;;;2.50;;
21245;SDS011;10781;50.928;4.440;2023-07-13T08:08:39;7.80;;;2.70;;
21245;SDS011;10781;50.928;4.440;2023-07-13T08:11:06;7.38;;;2.30;;
21245;SDS011;10781;50.928;4.440;2023-07-13T08:13:33;9.52;;;2.50;;
21245;SDS011;10781;50.928;4.440;2023-07-13T08:15:59;6.55;;;2.38;;
21245;SDS011;10781;50.928;4.440;2023-07-13T08:18:25;8.65;;;2.38;;
21245;SDS011;10781;50.928;4.440;2023-07-13T08:20:50;5.82;;;2.42;;
21245;SDS011;10781;50.928;4.440;2023-07-13T08:23:16;8.98;;;2.80;;
21245;SDS011;10781;50.928;4.440;2023-07-13T08:25:42;7.00;;;2.35;;
21245;SDS011;10781;50.928;4.440;2023-07-13T08:28:15;5.15;;;2.13;;
21245;SDS011;10781;50.928;4.440;2023-07-13T08:30:40;8.18;;;2.45;;
21245;SDS011;10781;50.928;4.440;2023-07-13T08:33:06;7.80;;;2.40;;
21245;SDS011;10781;50.928;4.440;2023-07-13T08:35:31;9.75;;;2.47;;
21245;SDS011;10781;50.928;4.440;2023-07-13T08:37:57;6.05;;;2.08;;
21245;SDS011;10781;50.928;4.440;2023-07-13T08:40:23;5.47;;;2.35;;
21245;SDS011;10781;50.928;4.440;2023-07-13T08:42:54;9.52;;;3.03;;
21245;SDS011;10781;50.928;4.440;2023-07-13T08:45:33;9.98;;;2.58;;
21245;SDS011;10781;50.928;4.440;2023-07-13T08:48:17;5.85;;;2.20;;
21245;SDS011;10781;50.928;4.440;2023-07-13T08:51:02;6.20;;;2.33;;
21245;SDS011;10781;50.928;4.440;2023-07-13T08:53:34;6.43;;;2.42;;
21245;SDS011;10781;50.928;4.440;2023-07-13T08:56:05;7.20;;;2.08;;
21245;SDS011;10781;50.928;4.440;2023-07-13T08:58:44;5.07;;;2.05;;
21245;SDS011;10781;50.928;4.440;2023-07-13T09:01:28;6.28;;;2.00;;
21245;SDS011;10781;50.928;4.440;2023-07-13T09:04:05;7.30;;;2.15;;
21245;SDS011;10781;50.928;4.440;2023-07-13T09:11:56;7.18;;;2.60;;
21245;SDS011;10781;50.928;4.440;2023-07-13T09:17:15;7.50;;;2.35;;
21245;SDS011;10781;50.928;4.440;2023-07-13T09:19:46;5.13;;;2.20;;
21245;SDS011;10781;50.928;4.440;2023-07-13T09:22:19;7.45;;;1.90;;
21245;SDS011;10781;50.928;4.440;2023-07-13T09:24:51;5.43;;;1.80;;
21245;SDS011;10781;50.928;4.440;2023-07-13T09:27:41;7.70;;;2.20;;
21245;SDS011;10781;50.928;4.440;2023-07-13T09:32:38;5.40;;;1.92;;
21245;SDS011;10781;50.928;4.440;2023-07-13T09:35:12;5.90;;;2.03;;
21245;SDS011;10781;50.928;4.440;2023-07-13T09:37:42;8.65;;;2.05;;
21245;SDS011;10781;50.928;4.440;2023-07-13T09:40:11;5.32;;;2.20;;
21245;SDS011;10781;50.928;4.440;2023-07-13T09:42:50;7.97;;;2.35;;
21245;SDS011;10781;50.928;4.440;2023-07-13T09:45:26;7.43;;;2.30;;
21245;SDS011;10781;50.928;4.440;2023-07-13T09:48:15;6.32;;;2.15;;
21245;SDS011;10781;50.928;4.440;2023-07-13T09:50:41;6.53;;;2.25;;
21245;SDS011;10781;50.928;4.440;2023-07-13T09:53:14;7.85;;;1.90;;
21245;SDS011;10781;50.928;4.440;2023-07-13T09:55:43;4.75;;;1.55;;
21245;SDS011;10781;50.928;4.440;2023-07-13T09:58:14;4.95;;;1.65;;
21245;SDS011;10781;50.928;4.440;2023-07-13T10:00:54;5.45;;;1.80;;
21245;SDS011;10781;50.928;4.440;2023-07-13T10:03:28;2.83;;;1.23;;
21245;SDS011;10781;50.928;4.440;2023-07-13T10:06:01;4.80;;;1.77;;
21245;SDS011;10781;50.928;4.440;2023-07-13T10:08:37;4.40;;;1.75;;
21245;SDS011;10781;50.928;4.440;2023-07-13T10:11:10;4.95;;;1.55;;
21245;SDS011;10781;50.928;4.440;2023-07-13T10:13:44;4.57;;;1.83;;
21245;SDS011;10781;50.928;4.440;2023-07-13T10:16:24;3.65;;;1.60;;
21245;SDS011;10781;50.928;4.440;2023-07-13T10:18:56;6.75;;;2.00;;
21245;SDS011;10781;50.928;4.440;2023-07-13T10:22:09;5.00;;;1.90;;
21245;SDS011;10781;50.928;4.440;2023-07-13T10:24:39;6.47;;;1.73;;
21245;SDS011;10781;50.928;4.440;2023-07-13T10:27:17;6.10;;;1.65;;
21245;SDS011;10781;50.928;4.440;2023-07-13T10:32:47;4.80;;;1.73;;
21245;SDS011;10781;50.928;4.440;2023-07-13T10:35:15;6.10;;;2.13;;
21245;SDS011;10781;50.928;4.440;2023-07-13T10:37:49;6.05;;;1.92;;
21245;SDS011;10781;50.928;4.440;2023-07-13T10:40:38;4.57;;;1.60;;
21245;SDS011;10781;50.928;4.440;2023-07-13T10:43:05;6.85;;;1.80;;
21245;SDS011;10781;50.928;4.440;2023-07-13T10:45:38;5.03;;;1.75;;
21245;SDS011;10781;50.928;4.440;2023-07-13T10:48:04;5.70;;;2.00;;
21245;SDS011;10781;50.928;4.440;2023-07-13T10:50:31;3.58;;;1.90;;
21245;SDS011;10781;50.928;4.440;2023-07-13T10:58:29;5.90;;;1.83;;
21245;SDS011;10781;50.928;4.440;2023-07-13T11:06:13;4.15;;;1.80;;
21245;SDS011;10781;50.928;4.440;2023-07-13T11:14:01;6.07;;;2.50;;
21245;SDS011;10781;50.928;4.440;2023-07-13T11:21:28;6.85;;;2.03;;
21245;SDS011;10781;50.928;4.440;2023-07-13T11:31:42;4.78;;;1.70;;
21245;SDS011;10781;50.928;4.440;2023-07-13T11:34:16;4.60;;;1.80;;
21245;SDS011;10781;50.928;4.440;2023-07-13T11:36:49;3.63;;;1.40;;
21245;SDS011;10781;50.928;4.440;2023-07-13T11:42:11;5.57;;;1.70;;
21245;SDS011;10781;50.928;4.440;2023-07-13T11:44:49;5.35;;;2.00;;
21245;SDS011;10781;50.928;4.440;2023-07-13T11:47:20;3.38;;;1.60;;
21245;SDS011;10781;50.928;4.440;2023-07-13T11:49:54;4.03;;;1.70;;
21245;SDS011;10781;50.928;4.440;2023-07-13T11:52:57;4.55;;;2.05;;
21245;SDS011;10781;50.928;4.440;2023-07-13T11:55:19;6.82;;;1.88;;
21245;SDS011;10781;50.928;4.440;2023-07-13T11:57:50;6.35;;;2.38;;
21245;SDS011;10781;50.928;4.440;2023-07-13T12:00:22;5.80;;;2.33;;
21245;SDS011;10781;50.928;4.440;2023-07-13T12:02:52;7.65;;;2.70;;
21245;SDS011;10781;50.928;4.440;2023-07-13T12:05:20;5.90;;;2.53;;
21245;SDS011;10781;50.928;4.440;2023-07-13T12:07:47;5.78;;;2.20;;
21245;SDS011;10781;50.928;4.440;2023-07-13T12:10:19;7.38;;;2.65;;
21245;SDS011;10781;50.928;4.440;2023-07-13T12:15:19;7.57;;;2.90;;
21245;SDS011;10781;50.928;4.440;2023-07-13T12:17:47;5.88;;;2.40;;
21245;SDS011;10781;50.928;4.440;2023-07-13T12:20:37;7.78;;;2.83;;
21245;SDS011;10781;50.928;4.440;2023-07-13T12:23:28;5.43;;;2.17;;
21245;SDS011;10781;50.928;4.440;2023-07-13T12:26:01;3.88;;;1.95;;
21245;SDS011;10781;50.928;4.440;2023-07-13T12:30:59;4.68;;;1.92;;
21245;SDS011;10781;50.928;4.440;2023-07-13T12:33:29;3.38;;;1.80;;
21245;SDS011;10781;50.928;4.440;2023-07-13T12:35:57;6.30;;;1.90;;
21245;SDS011;10781;50.928;4.440;2023-07-13T12:38:27;5.88;;;2.33;;
21245;SDS011;10781;50.928;4.440;2023-07-13T12:40:53;4.38;;;1.70;;
21245;SDS011;10781;50.928;4.440;2023-07-13T12:43:20;4.18;;;1.70;;
21245;SDS011;10781;50.928;4.440;2023-07-13T12:45:57;5.32;;;2.38;;
21245;SDS011;10781;50.928;4.440;2023-07-13T12:48:26;3.50;;;2.00;;
21245;SDS011;10781;50.928;4.440;2023-07-13T12:50:53;3.50;;;1.70;;
21245;SDS011;10781;50.928;4.440;2023-07-13T12:53:22;3.78;;;2.03;;
21245;SDS011;10781;50.928;4.440;2023-07-13T12:55:54;4.55;;;1.58;;
21245;SDS011;10781;50.928;4.440;2023-07-13T13:01:04;3.38;;;1.80;;
21245;SDS011;10781;50.928;4.440;2023-07-13T13:03:40;4.40;;;2.00;;
21245;SDS011;10781;50.928;4.440;2023-07-13T13:08:43;4.55;;;2.17;;
21245;SDS011;10781;50.928;4.440;2023-07-13T13:11:16;4.38;;;2.10;;
21245;SDS011;10781;50.928;4.440;2023-07-13T13:13:46;5.40;;;2.38;;
21245;SDS011;10781;50.928;4.440;2023-07-13T13:18:46;4.60;;;2.28;;
21245;SDS011;10781;50.928;4.440;2023-07-13T13:21:12;5.10;;;2.40;;
21245;SDS011;10781;50.928;4.440;2023-07-13T13:23:38;4.63;;;2.70;;
21245;SDS011;10781;50.928;4.440;2023-07-13T13:26:05;4.68;;;2.70;;
21245;SDS011;10781;50.928;4.440;2023-07-13T13:28:38;4.03;;;2.28;;
21245;SDS011;10781;50.928;4.440;2023-07-13T13:31:03;3.03;;;1.85;;
21245;SDS011;10781;50.928;4.440;2023-07-13T13:33:29;3.85;;;1.90;;
21245;SDS011;10781;50.928;4.440;2023-07-13T13:35:55;3.85;;;2.33;;
21245;SDS011;10781;50.928;4.440;2023-07-13T13:38:24;2.83;;;1.77;;
21245;SDS011;10781;50.928;4.440;2023-07-13T13:40:51;3.60;;;1.95;;
21245;SDS011;10781;50.928;4.440;2023-07-13T13:43:18;3.53;;;1.73;;
21245;SDS011;10781;50.928;4.440;2023-07-13T13:45:52;2.90;;;1.50;;
21245;SDS011;10781;50.928;4.440;2023-07-13T13:48:21;2.63;;;1.50;;
21245;SDS011;10781;50.928;4.440;2023-07-13T13:51:01;4.30;;;1.30;;
21245;SDS011;10781;50.928;4.440;2023-07-13T13:53:37;4.18;;;1.50;;
21245;SDS011;10781;50.928;4.440;2023-07-13T13:56:03;2.88;;;1.60;;
21245;SDS011;10781;50.928;4.440;2023-07-13T13:58:29;4.93;;;2.30;;
21245;SDS011;10781;50.928;4.440;2023-07-13T14:00:55;5.15;;;1.63;;
21245;SDS011;10781;50.928;4.440;2023-07-13T14:03:23;3.58;;;1.50;;
21245;SDS011;10781;50.928;4.440;2023-07-13T14:05:49;3.58;;;1.30;;
21245;SDS011;10781;50.928;4.440;2023-07-13T14:08:15;3.45;;;1.60;;
21245;SDS011;10781;50.928;4.440;2023-07-13T14:10:42;2.58;;;1.15;;
21245;SDS011;10781;50.928;4.440;2023-07-13T14:13:27;2.38;;;1.33;;
21245;SDS011;10781;50.928;4.440;2023-07-13T14:15:57;4.65;;;1.40;;
21245;SDS011;10781;50.928;4.440;2023-07-13T14:18:24;3.42;;;1.30;;
21245;SDS011;10781;50.928;4.440;2023-07-13T14:20:50;2.28;;;1.23;;
21245;SDS011;10781;50.928;4.440;2023-07-13T14:23:17;3.35;;;1.67;;
21245;SDS011;10781;50.928;4.440;2023-07-13T14:25:43;2.97;;;1.40;;
21245;SDS011;10781;50.928;4.440;2023-07-13T14:28:16;3.53;;;1.48;;
21245;SDS011;10781;50.928;4.440;2023-07-13T14:30:50;1.83;;;1.00;;
21245;SDS011;10781;50.928;4.440;2023-07-13T14:33:17;3.65;;;1.60;;
21245;SDS011;10781;50.928;4.440;2023-07-13T14:35:43;4.97;;;1.60;;
21245;SDS011;10781;50.928;4.440;2023-07-13T14:38:19;4.13;;;1.35;;
21245;SDS011;10781;50.928;4.440;2023-07-13T14:40:45;5.57;;;1.70;;
21245;SDS011;10781;50.928;4.440;2023-07-13T14:43:12;2.90;;;1.25;;
21245;SDS011;10781;50.928;4.440;2023-07-13T14:45:40;2.95;;;1.30;;
21245;SDS011;10781;50.928;4.440;2023-07-13T14:48:19;2.83;;;1.23;;
21245;SDS011;10781;50.928;4.440;2023-07-13T14:50:49;4.15;;;1.60;;
21245;SDS011;10781;50.928;4.440;2023-07-13T14:53:21;4.28;;;1.50;;
21245;SDS011;10781;50.928;4.440;2023-07-13T14:55:47;2.65;;;1.40;;
21245;SDS011;10781;50.928;4.440;2023-07-13T14:58:13;2.45;;;1.50;;
21245;SDS011;10781;50.928;4.440;2023-07-13T15:00:39;2.90;;;1.38;;
21245;SDS011;10781;50.928;4.440;2023-07-13T15:03:05;2.92;;;1.42;;
21245;SDS011;10781;50.928;4.440;2023-07-13T15:05:41;3.42;;;1.50;;
21245;SDS011;10781;50.928;4.440;2023-07-13T15:08:07;3.60;;;1.50;;
21245;SDS011;10781;50.928;4.440;2023-07-13T15:10:35;3.42;;;1.60;;
21245;SDS011;10781;50.928;4.440;2023-07-13T15:13:20;4.03;;;1.45;;
21245;SDS011;10781;50.928;4.440;2023-07-13T15:15:47;4.63;;;1.40;;
21245;SDS011;10781;50.928;4.440;2023-07-13T15:18:17;3.03;;;1.38;;
21245;SDS011;10781;50.928;4.440;2023-07-13T15:20:46;3.47;;;1.35;;
21245;SDS011;10781;50.928;4.440;2023-07-13T15:23:13;4.20;;;1.50;;
21245;SDS011;10781;50.928;4.440;2023-07-13T15:25:40;2.97;;;1.30;;
21245;SDS011;10781;50.928;4.440;2023-07-13T15:28:07;3.10;;;1.50;;
21245;SDS011;10781;50.928;4.440;2023-07-13T15:30:40;2.97;;;1.30;;
21245;SDS011;10781;50.928;4.440;2023-07-13T15:33:13;4.25;;;1.60;;
21245;SDS011;10781;50.928;4.440;2023-07-13T15:35:42;2.45;;;1.35;;
21245;SDS011;10781;50.928;4.440;2023-07-13T15:38:19;3.28;;;1.40;;
21245;SDS011;10781;50.928;4.440;2023-07-13T15:40:49;3.65;;;1.60;;
21245;SDS011;10781;50.928;4.440;2023-07-13T15:43:17;2.55;;;1.45;;
21245;SDS011;10781;50.928;4.440;2023-07-13T15:45:44;3.30;;;1.50;;
21245;SDS011;10781;50.928;4.440;2023-07-13T15:50:47;2.70;;;1.63;;
21245;SDS011;10781;50.928;4.440;2023-07-13T15:53:19;2.58;;;1.60;;
21245;SDS011;10781;50.928;4.440;2023-07-13T15:55:49;5.68;;;1.90;;